sensor_id;sensor_type;location;lat;lon;timestamp;pressure;altitude;pressure_sealevel;temperature;humidity
46291;BME280;32023;44.444;26.006;2023-04-25T00:00:40;99536.28;;;15.68;65.39
46291;BME280;32023;44.444;26.006;2023-04-25T00:03:09;99538.56;;;15.66;65.15
46291;BME280;32023;44.444;26.006;2023-04-25T00:05:38;99543.28;;;15.65;65.17
46291;BME280;32023;44.444;26.006;2023-04-25T00:08:16;99540.81;;;15.64;65.31
46291;BME280;32023;44.444;26.006;2023-04-25T00:10:50;99544.75;;;15.63;65.10
46291;BME280;32023;44.444;26.006;2023-04-25T00:13:21;99554.19;;;15.62;65.30
46291;BME280;32023;44.444;26.006;2023-04-25T00:15:48;99544.03;;;15.57;65.31
46291;BME280;32023;44.444;26.006;2023-04-25T00:18:17;99550.22;;;15.54;65.29
46291;BME280;32023;44.444;26.006;2023-04-25T00:20:49;99549.44;;;15.49;65.59
46291;BME280;32023;44.444;26.006;2023-04-25T00:23:19;99550.09;;;15.46;65.68
46291;BME280;32023;44.444;26.006;2023-04-25T00:25:50;99539.63;;;15.42;65.82
46291;BME280;32023;44.444;26.006;2023-04-25T00:28:21;99545.16;;;15.42;65.94
46291;BME280;32023;44.444;26.006;2023-04-25T00:30:48;99543.03;;;15.39;65.82
46291;BME280;32023;44.444;26.006;2023-04-25T00:33:16;99541.59;;;15.28;66.63
46291;BME280;32023;44.444;26.006;2023-04-25T00:35:45;99537.81;;;15.11;67.39
46291;BME280;32023;44.444;26.006;2023-04-25T00:38:12;99536.81;;;14.93;68.19
46291;BME280;32023;44.444;26.006;2023-04-25T00:40:40;99537.50;;;14.85;68.37
46291;BME280;32023;44.444;26.006;2023-04-25T00:43:16;99544.81;;;14.81;68.75
46291;BME280;32023;44.444;26.006;2023-04-25T00:45:43;99564.41;;;14.71;69.58
46291;BME280;32023;44.444;26.006;2023-04-25T00:48:25;99565.72;;;14.46;70.87
46291;BME280;32023;44.444;26.006;2023-04-25T00:50:54;99564.81;;;14.32;72.20
46291;BME280;32023;44.444;26.006;2023-04-25T00:53:24;99561.00;;;14.28;73.11
46291;BME280;32023;44.444;26.006;2023-04-25T00:55:52;99561.19;;;14.18;74.27
46291;BME280;32023;44.444;26.006;2023-04-25T00:58:20;99562.78;;;14.05;75.53
46291;BME280;32023;44.444;26.006;2023-04-25T01:00:48;99560.94;;;14.01;76.05
46291;BME280;32023;44.444;26.006;2023-04-25T01:03:18;99555.19;;;13.97;76.77
46291;BME280;32023;44.444;26.006;2023-04-25T01:05:48;99558.75;;;13.97;77.30
46291;BME280;32023;44.444;26.006;2023-04-25T01:08:15;99548.00;;;13.96;78.09
46291;BME280;32023;44.444;26.006;2023-04-25T01:10:41;99545.84;;;13.93;78.55
46291;BME280;32023;44.444;26.006;2023-04-25T01:13:11;99540.31;;;13.93;78.86
46291;BME280;32023;44.444;26.006;2023-04-25T01:15:46;99541.63;;;13.95;78.87
46291;BME280;32023;44.444;26.006;2023-04-25T01:18:13;99529.66;;;14.00;78.70
46291;BME280;32023;44.444;26.006;2023-04-25T01:20:43;99528.38;;;14.11;78.41
46291;BME280;32023;44.444;26.006;2023-04-25T01:23:11;99530.72;;;14.18;78.05
46291;BME280;32023;44.444;26.006;2023-04-25T01:25:42;99532.69;;;14.17;78.34
46291;BME280;32023;44.444;26.006;2023-04-25T01:28:20;99528.38;;;14.11;78.69
46291;BME280;32023;44.444;26.006;2023-04-25T01:30:50;99535.84;;;14.11;78.75
46291;BME280;32023;44.444;26.006;2023-04-25T01:33:21;99535.56;;;14.12;78.78
46291;BME280;32023;44.444;26.006;2023-04-25T01:35:48;99533.38;;;14.09;78.81
46291;BME280;32023;44.444;26.006;2023-04-25T01:38:17;99539.31;;;14.03;79.19
46291;BME280;32023;44.444;26.006;2023-04-25T01:40:46;99540.31;;;13.93;79.59
46291;BME280;32023;44.444;26.006;2023-04-25T01:43:15;99540.38;;;13.88;80.30
46291;BME280;32023;44.444;26.006;2023-04-25T01:48:40;99541.66;;;13.77;81.44
46291;BME280;32023;44.444;26.006;2023-04-25T01:51:12;99535.31;;;13.76;81.42
46291;BME280;32023;44.444;26.006;2023-04-25T01:53:42;99537.25;;;13.76;81.42
46291;BME280;32023;44.444;26.006;2023-04-25T01:56:11;99534.03;;;13.69;81.97
46291;BME280;32023;44.444;26.006;2023-04-25T01:58:37;99526.63;;;13.64;82.36
46291;BME280;32023;44.444;26.006;2023-04-25T02:01:09;99523.03;;;13.64;82.19
46291;BME280;32023;44.444;26.006;2023-04-25T02:03:36;99519.69;;;13.67;82.15
46291;BME280;32023;44.444;26.006;2023-04-25T02:06:03;99528.56;;;13.64;82.41
46291;BME280;32023;44.444;26.006;2023-04-25T02:08:32;99517.81;;;13.62;82.73
46291;BME280;32023;44.444;26.006;2023-04-25T02:10:58;99517.81;;;13.62;83.13
46291;BME280;32023;44.444;26.006;2023-04-25T02:13:31;99519.78;;;13.62;83.44
46291;BME280;32023;44.444;26.006;2023-04-25T02:15:58;99516.19;;;13.61;84.02
46291;BME280;32023;44.444;26.006;2023-04-25T02:18:24;99514.75;;;13.64;83.86
46291;BME280;32023;44.444;26.006;2023-04-25T02:20:52;99505.34;;;13.65;84.00
46291;BME280;32023;44.444;26.006;2023-04-25T02:23:18;99499.19;;;13.68;83.90
46291;BME280;32023;44.444;26.006;2023-04-25T02:25:46;99497.19;;;13.73;83.58
46291;BME280;32023;44.444;26.006;2023-04-25T02:28:16;99504.59;;;13.78;83.31
46291;BME280;32023;44.444;26.006;2023-04-25T02:30:46;99502.31;;;13.80;83.43
46291;BME280;32023;44.444;26.006;2023-04-25T02:33:13;99501.72;;;13.83;83.45
46291;BME280;32023;44.444;26.006;2023-04-25T02:35:43;99508.28;;;13.87;83.18
46291;BME280;32023;44.444;26.006;2023-04-25T02:38:12;99498.88;;;13.88;83.29
46291;BME280;32023;44.444;26.006;2023-04-25T02:40:52;99493.31;;;13.88;83.35
46291;BME280;32023;44.444;26.006;2023-04-25T02:43:19;99482.47;;;13.91;83.15
46291;BME280;32023;44.444;26.006;2023-04-25T02:45:47;99484.00;;;13.97;82.92
46291;BME280;32023;44.444;26.006;2023-04-25T02:48:19;99476.47;;;14.03;82.46
46291;BME280;32023;44.444;26.006;2023-04-25T02:50:48;99474.50;;;14.04;81.95
46291;BME280;32023;44.444;26.006;2023-04-25T02:53:17;99475.13;;;14.01;81.10
46291;BME280;32023;44.444;26.006;2023-04-25T02:55:49;99472.66;;;13.99;80.20
46291;BME280;32023;44.444;26.006;2023-04-25T02:58:18;99475.50;;;13.94;79.30
46291;BME280;32023;44.444;26.006;2023-04-25T03:00:50;99473.34;;;13.91;78.53
46291;BME280;32023;44.444;26.006;2023-04-25T03:03:19;99468.41;;;13.88;77.99
46291;BME280;32023;44.444;26.006;2023-04-25T03:05:49;99468.50;;;13.83;77.37
46291;BME280;32023;44.444;26.006;2023-04-25T03:08:25;99458.88;;;13.80;76.91
46291;BME280;32023;44.444;26.006;2023-04-25T03:10:55;99463.38;;;13.76;76.66
46291;BME280;32023;44.444;26.006;2023-04-25T03:13:25;99465.91;;;13.73;76.60
46291;BME280;32023;44.444;26.006;2023-04-25T03:15:59;99461.28;;;13.68;76.16
46291;BME280;32023;44.444;26.006;2023-04-25T03:18:26;99463.84;;;13.65;76.05
46291;BME280;32023;44.444;26.006;2023-04-25T03:20:55;99464.72;;;13.60;76.09
46291;BME280;32023;44.444;26.006;2023-04-25T03:23:21;99458.16;;;13.56;76.17
46291;BME280;32023;44.444;26.006;2023-04-25T03:25:52;99456.81;;;13.54;76.08
46291;BME280;32023;44.444;26.006;2023-04-25T03:28:21;99456.31;;;13.52;75.85
46291;BME280;32023;44.444;26.006;2023-04-25T03:30:47;99451.38;;;13.48;75.81
46291;BME280;32023;44.444;26.006;2023-04-25T03:33:15;99451.69;;;13.47;75.80
46291;BME280;32023;44.444;26.006;2023-04-25T03:35:44;99457.50;;;13.45;75.83
46291;BME280;32023;44.444;26.006;2023-04-25T03:38:15;99463.03;;;13.45;75.71
46291;BME280;32023;44.444;26.006;2023-04-25T03:40:49;99460.38;;;13.40;75.80
46291;BME280;32023;44.444;26.006;2023-04-25T03:43:24;99456.25;;;13.38;75.83
46291;BME280;32023;44.444;26.006;2023-04-25T03:45:53;99457.13;;;13.33;75.95
46291;BME280;32023;44.444;26.006;2023-04-25T03:48:28;99456.63;;;13.31;75.97
46291;BME280;32023;44.444;26.006;2023-04-25T03:50:55;99462.97;;;13.32;76.09
46291;BME280;32023;44.444;26.006;2023-04-25T03:53:22;99457.75;;;13.30;76.44
46291;BME280;32023;44.444;26.006;2023-04-25T03:55:50;99454.38;;;13.33;76.71
46291;BME280;32023;44.444;26.006;2023-04-25T03:58:22;99467.09;;;13.34;76.56
46291;BME280;32023;44.444;26.006;2023-04-25T04:01:15;99462.16;;;13.31;76.98
46291;BME280;32023;44.444;26.006;2023-04-25T04:03:41;99463.81;;;13.32;77.10
46291;BME280;32023;44.444;26.006;2023-04-25T04:06:08;99463.81;;;13.32;77.03
46291;BME280;32023;44.444;26.006;2023-04-25T04:08:39;99466.56;;;13.32;77.20
46291;BME280;32023;44.444;26.006;2023-04-25T04:11:08;99469.34;;;13.32;77.44
46291;BME280;32023;44.444;26.006;2023-04-25T04:13:35;99474.34;;;13.30;77.42
46291;BME280;32023;44.444;26.006;2023-04-25T04:16:05;99478.75;;;13.31;77.46
46291;BME280;32023;44.444;26.006;2023-04-25T04:18:43;99475.69;;;13.33;77.70
46291;BME280;32023;44.444;26.006;2023-04-25T04:21:18;99476.50;;;13.33;77.74
46291;BME280;32023;44.444;26.006;2023-04-25T04:23:44;99470.66;;;13.35;77.88
46291;BME280;32023;44.444;26.006;2023-04-25T04:26:15;99471.19;;;13.37;77.81
46291;BME280;32023;44.444;26.006;2023-04-25T04:28:45;99483.06;;;13.37;77.82
46291;BME280;32023;44.444;26.006;2023-04-25T04:31:11;99478.06;;;13.39;78.14
46291;BME280;32023;44.444;26.006;2023-04-25T04:33:41;99480.22;;;13.42;78.27
46291;BME280;32023;44.444;26.006;2023-04-25T04:36:11;99491.00;;;13.44;78.60
46291;BME280;32023;44.444;26.006;2023-04-25T04:38:41;99483.22;;;13.46;78.53
46291;BME280;32023;44.444;26.006;2023-04-25T04:41:14;99492.34;;;13.46;78.54
46291;BME280;32023;44.444;26.006;2023-04-25T04:44:01;99489.28;;;13.48;78.93
46291;BME280;32023;44.444;26.006;2023-04-25T04:46:30;99491.75;;;13.49;78.90
46291;BME280;32023;44.444;26.006;2023-04-25T04:49:06;99492.28;;;13.52;79.25
46291;BME280;32023;44.444;26.006;2023-04-25T04:51:36;99496.66;;;13.52;79.27
46291;BME280;32023;44.444;26.006;2023-04-25T04:54:34;99501.16;;;13.48;79.54
46291;BME280;32023;44.444;26.006;2023-04-25T04:57:01;99501.47;;;13.47;79.83
46291;BME280;32023;44.444;26.006;2023-04-25T04:59:28;99504.53;;;13.45;80.10
46291;BME280;32023;44.444;26.006;2023-04-25T05:02:05;99505.63;;;13.44;79.92
46291;BME280;32023;44.444;26.006;2023-04-25T05:04:33;99495.72;;;13.43;80.04
46291;BME280;32023;44.444;26.006;2023-04-25T05:07:05;99499.31;;;13.44;79.78
46291;BME280;32023;44.444;26.006;2023-04-25T05:09:37;99498.78;;;13.42;79.80
46291;BME280;32023;44.444;26.006;2023-04-25T05:12:06;99500.72;;;13.41;79.64
46291;BME280;32023;44.444;26.006;2023-04-25T05:14:46;99500.72;;;13.41;79.51
46291;BME280;32023;44.444;26.006;2023-04-25T05:17:14;99501.25;;;13.43;79.68
46291;BME280;32023;44.444;26.006;2023-04-25T05:19:43;99506.16;;;13.46;79.95
46291;BME280;32023;44.444;26.006;2023-04-25T05:22:18;99502.28;;;13.47;80.05
46291;BME280;32023;44.444;26.006;2023-04-25T05:24:50;99499.53;;;13.47;80.08
46291;BME280;32023;44.444;26.006;2023-04-25T05:27:18;99504.75;;;13.49;80.04
46291;BME280;32023;44.444;26.006;2023-04-25T05:29:50;99501.97;;;13.49;79.81
46291;BME280;32023;44.444;26.006;2023-04-25T05:32:20;99502.81;;;13.49;79.95
46291;BME280;32023;44.444;26.006;2023-04-25T05:34:49;99501.97;;;13.49;80.03
46291;BME280;32023;44.444;26.006;2023-04-25T05:37:16;99507.72;;;13.52;80.19
46291;BME280;32023;44.444;26.006;2023-04-25T05:39:44;99501.63;;;13.56;80.29
46291;BME280;32023;44.444;26.006;2023-04-25T05:42:11;99497.72;;;13.57;80.57
46291;BME280;32023;44.444;26.006;2023-04-25T05:44:37;99494.94;;;13.57;80.56
46291;BME280;32023;44.444;26.006;2023-04-25T05:47:09;99502.63;;;13.60;81.03
46291;BME280;32023;44.444;26.006;2023-04-25T05:49:43;99499.56;;;13.61;81.10
46291;BME280;32023;44.444;26.006;2023-04-25T05:52:15;99492.63;;;13.64;81.61
46291;BME280;32023;44.444;26.006;2023-04-25T05:54:44;99494.25;;;13.65;81.83
46291;BME280;32023;44.444;26.006;2023-04-25T05:57:25;99484.84;;;13.66;82.04
46291;BME280;32023;44.444;26.006;2023-04-25T05:59:59;99483.19;;;13.65;82.30
46291;BME280;32023;44.444;26.006;2023-04-25T06:02:29;99491.50;;;13.65;82.31
46291;BME280;32023;44.444;26.006;2023-04-25T06:04:55;99488.72;;;13.65;82.38
46291;BME280;32023;44.444;26.006;2023-04-25T06:07:22;99489.56;;;13.65;82.62
46291;BME280;32023;44.444;26.006;2023-04-25T06:09:49;99486.78;;;13.65;82.85
46291;BME280;32023;44.444;26.006;2023-04-25T06:12:15;99487.63;;;13.66;83.09
46291;BME280;32023;44.444;26.006;2023-04-25T06:14:42;99485.06;;;13.69;83.27
46291;BME280;32023;44.444;26.006;2023-04-25T06:17:10;99491.66;;;13.73;83.42
46291;BME280;32023;44.444;26.006;2023-04-25T06:19:39;99483.03;;;13.75;83.46
46291;BME280;32023;44.444;26.006;2023-04-25T06:22:09;99496.78;;;13.80;83.35
46291;BME280;32023;44.444;26.006;2023-04-25T06:24:44;99489.59;;;13.79;83.46
46291;BME280;32023;44.444;26.006;2023-04-25T06:27:20;99488.19;;;13.81;83.29
46291;BME280;32023;44.444;26.006;2023-04-25T06:29:50;99480.72;;;13.82;83.38
46291;BME280;32023;44.444;26.006;2023-04-25T06:32:17;99487.38;;;13.81;83.33
46291;BME280;32023;44.444;26.006;2023-04-25T06:34:46;99480.41;;;13.83;83.40
46291;BME280;32023;44.444;26.006;2023-04-25T06:37:31;99485.63;;;13.85;83.24
46291;BME280;32023;44.444;26.006;2023-04-25T06:40:11;99481.66;;;13.91;83.32
46291;BME280;32023;44.444;26.006;2023-04-25T06:43:14;99485.78;;;13.93;83.20
46291;BME280;32023;44.444;26.006;2023-04-25T06:45:51;99489.25;;;13.99;83.17
46291;BME280;32023;44.444;26.006;2023-04-25T06:48:27;99485.25;;;14.05;82.73
46291;BME280;32023;44.444;26.006;2023-04-25T06:50:54;99483.84;;;14.08;82.58
46291;BME280;32023;44.444;26.006;2023-04-25T06:53:23;99486.84;;;14.11;82.52
46291;BME280;32023;44.444;26.006;2023-04-25T06:55:52;99481.28;;;14.11;82.39
46291;BME280;32023;44.444;26.006;2023-04-25T06:58:32;99488.50;;;14.12;82.18
46291;BME280;32023;44.444;26.006;2023-04-25T07:01:03;99482.13;;;14.12;82.06
46291;BME280;32023;44.444;26.006;2023-04-25T07:03:47;99488.16;;;14.14;81.89
46291;BME280;32023;44.444;26.006;2023-04-25T07:06:23;99488.50;;;14.12;81.67
46291;BME280;32023;44.444;26.006;2023-04-25T07:09:11;99494.03;;;14.12;81.43
46291;BME280;32023;44.444;26.006;2023-04-25T07:15:08;99478.59;;;14.06;81.24
46291;BME280;32023;44.444;26.006;2023-04-25T07:28:45;99488.66;;;14.34;81.70
46291;BME280;32023;44.444;26.006;2023-04-25T07:42:13;99475.22;;;14.55;81.60
46291;BME280;32023;44.444;26.006;2023-04-25T07:55:30;99462.06;;;14.74;81.60
46291;BME280;32023;44.444;26.006;2023-04-25T08:01:25;99452.72;;;14.70;81.75
46291;BME280;32023;44.444;26.006;2023-04-25T08:14:17;99459.19;;;14.93;81.74
46291;BME280;32023;44.444;26.006;2023-04-25T08:17:27;99460.19;;;14.97;81.20
46291;BME280;32023;44.444;26.006;2023-04-25T08:20:16;99465.50;;;15.07;81.24
46291;BME280;32023;44.444;26.006;2023-04-25T08:23:35;99463.16;;;15.14;80.88
46291;BME280;32023;44.444;26.006;2023-04-25T08:26:49;99477.91;;;15.23;80.76
46291;BME280;32023;44.444;26.006;2023-04-25T08:29:52;99468.03;;;15.31;80.48
46291;BME280;32023;44.444;26.006;2023-04-25T08:40:13;99472.00;;;15.38;80.66
46291;BME280;32023;44.444;26.006;2023-04-25T08:43:30;99472.00;;;15.38;80.76
46291;BME280;32023;44.444;26.006;2023-04-25T08:53:18;99480.84;;;15.40;81.04
46291;BME280;32023;44.444;26.006;2023-04-25T08:56:40;99482.63;;;15.36;81.07
46291;BME280;32023;44.444;26.006;2023-04-25T09:00:08;99481.47;;;15.37;80.99
46291;BME280;32023;44.444;26.006;2023-04-25T09:03:09;99484.75;;;15.39;81.04
46291;BME280;32023;44.444;26.006;2023-04-25T09:06:28;99484.94;;;15.43;80.74
46291;BME280;32023;44.444;26.006;2023-04-25T09:09:41;99488.13;;;15.50;80.28
46291;BME280;32023;44.444;26.006;2023-04-25T09:25:59;99478.00;;;16.52;77.48
46291;BME280;32023;44.444;26.006;2023-04-25T09:49:17;99461.22;;;17.39;68.71
46291;BME280;32023;44.444;26.006;2023-04-25T09:55:16;99465.78;;;17.09;68.56
46291;BME280;32023;44.444;26.006;2023-04-25T10:18:20;99425.00;;;18.84;64.24
46291;BME280;32023;44.444;26.006;2023-04-25T10:20:47;99430.06;;;18.61;64.55
46291;BME280;32023;44.444;26.006;2023-04-25T10:23:14;99428.75;;;18.50;64.60
46291;BME280;32023;44.444;26.006;2023-04-25T10:25:43;99429.19;;;18.31;64.69
46291;BME280;32023;44.444;26.006;2023-04-25T10:28:15;99433.94;;;18.31;64.90
46291;BME280;32023;44.444;26.006;2023-04-25T10:31:03;99428.06;;;18.23;64.97
46291;BME280;32023;44.444;26.006;2023-04-25T10:33:51;99438.72;;;18.13;65.86
46291;BME280;32023;44.444;26.006;2023-04-25T10:36:21;99433.22;;;17.87;67.19
46291;BME280;32023;44.444;26.006;2023-04-25T10:38:49;99427.94;;;18.11;67.34
46291;BME280;32023;44.444;26.006;2023-04-25T10:41:24;99409.75;;;18.81;65.24
46291;BME280;32023;44.444;26.006;2023-04-25T10:44:01;99407.78;;;21.15;58.67
46291;BME280;32023;44.444;26.006;2023-04-25T10:46:32;99404.91;;;23.74;50.16
46291;BME280;32023;44.444;26.006;2023-04-25T10:49:01;99395.34;;;25.71;44.64
46291;BME280;32023;44.444;26.006;2023-04-25T10:51:34;99397.97;;;28.05;38.33
46291;BME280;32023;44.444;26.006;2023-04-25T10:54:06;99404.34;;;29.90;34.25
46291;BME280;32023;44.444;26.006;2023-04-25T10:56:41;99398.53;;;30.15;33.07
46291;BME280;32023;44.444;26.006;2023-04-25T10:59:31;99389.16;;;28.63;34.35
46291;BME280;32023;44.444;26.006;2023-04-25T11:01:57;99404.16;;;26.84;37.18
46291;BME280;32023;44.444;26.006;2023-04-25T11:10:36;99389.34;;;22.41;47.08
46291;BME280;32023;44.444;26.006;2023-04-25T11:13:06;99384.00;;;22.36;47.33
46291;BME280;32023;44.444;26.006;2023-04-25T11:15:35;99377.44;;;23.29;45.79
46291;BME280;32023;44.444;26.006;2023-04-25T11:18:16;99361.25;;;23.42;44.75
46291;BME280;32023;44.444;26.006;2023-04-25T11:20:46;99363.72;;;23.09;45.82
46291;BME280;32023;44.444;26.006;2023-04-25T11:23:18;99360.84;;;22.39;47.45
46291;BME280;32023;44.444;26.006;2023-04-25T11:25:54;99355.94;;;22.04;48.34
46291;BME280;32023;44.444;26.006;2023-04-25T11:28:26;99354.69;;;21.74;48.75
46291;BME280;32023;44.444;26.006;2023-04-25T11:30:56;99335.81;;;21.71;48.85
46291;BME280;32023;44.444;26.006;2023-04-25T11:33:31;99338.72;;;21.90;49.13
46291;BME280;32023;44.444;26.006;2023-04-25T11:36:13;99339.66;;;21.94;48.53
46291;BME280;32023;44.444;26.006;2023-04-25T11:38:43;99335.91;;;21.75;48.69
46291;BME280;32023;44.444;26.006;2023-04-25T11:41:19;99328.94;;;21.41;48.80
46291;BME280;32023;44.444;26.006;2023-04-25T11:43:46;99333.38;;;21.14;49.77
46291;BME280;32023;44.444;26.006;2023-04-25T11:46:21;99330.56;;;20.62;52.03
46291;BME280;32023;44.444;26.006;2023-04-25T11:48:52;99330.25;;;20.06;53.55
46291;BME280;32023;44.444;26.006;2023-04-25T11:51:24;99336.81;;;19.65;54.63
46291;BME280;32023;44.444;26.006;2023-04-25T11:53:52;99360.38;;;19.44;57.17
46291;BME280;32023;44.444;26.006;2023-04-25T11:56:29;99376.94;;;18.57;65.81
46291;BME280;32023;44.444;26.006;2023-04-25T11:58:59;99383.97;;;17.45;68.95
46291;BME280;32023;44.444;26.006;2023-04-25T12:04:21;99373.25;;;15.37;76.35
46291;BME280;32023;44.444;26.006;2023-04-25T12:06:49;99370.25;;;14.54;84.34
46291;BME280;32023;44.444;26.006;2023-04-25T12:09:20;99359.91;;;14.05;88.25
46291;BME280;32023;44.444;26.006;2023-04-25T12:11:56;99349.81;;;13.81;91.71
46291;BME280;32023;44.444;26.006;2023-04-25T12:14:26;99363.34;;;13.69;93.73
46291;BME280;32023;44.444;26.006;2023-04-25T12:16:57;99361.75;;;13.49;93.60
46291;BME280;32023;44.444;26.006;2023-04-25T12:19:24;99350.59;;;13.22;92.51
46291;BME280;32023;44.444;26.006;2023-04-25T12:21:51;99339.53;;;13.03;91.88
46291;BME280;32023;44.444;26.006;2023-04-25T12:24:23;99334.56;;;12.87;90.28
46291;BME280;32023;44.444;26.006;2023-04-25T12:29:27;99317.13;;;13.05;91.02
46291;BME280;32023;44.444;26.006;2023-04-25T12:31:57;99325.03;;;13.30;91.39
46291;BME280;32023;44.444;26.006;2023-04-25T12:34:24;99327.56;;;13.59;91.36
46291;BME280;32023;44.444;26.006;2023-04-25T12:36:54;99328.09;;;13.88;91.38
46291;BME280;32023;44.444;26.006;2023-04-25T12:39:24;99332.41;;;14.08;91.09
46291;BME280;32023;44.444;26.006;2023-04-25T12:41:53;99327.59;;;14.14;90.73
46291;BME280;32023;44.444;26.006;2023-04-25T12:44:22;99334.66;;;14.33;91.02
46291;BME280;32023;44.444;26.006;2023-04-25T12:46:54;99337.41;;;14.61;90.90
46291;BME280;32023;44.444;26.006;2023-04-25T12:49:21;99331.28;;;14.86;90.30
46291;BME280;32023;44.444;26.006;2023-04-25T12:51:48;99341.63;;;15.16;89.56
46291;BME280;32023;44.444;26.006;2023-04-25T12:54:23;99331.28;;;15.30;87.21
46291;BME280;32023;44.444;26.006;2023-04-25T12:56:56;99326.38;;;15.27;86.14
46291;BME280;32023;44.444;26.006;2023-04-25T12:59:22;99318.34;;;15.26;85.07
46291;BME280;32023;44.444;26.006;2023-04-25T13:01:49;99313.03;;;15.29;83.98
46291;BME280;32023;44.444;26.006;2023-04-25T13:04:18;99318.94;;;15.36;82.52
46291;BME280;32023;44.444;26.006;2023-04-25T13:06:47;99316.19;;;15.45;82.13
46291;BME280;32023;44.444;26.006;2023-04-25T13:09:13;99308.91;;;15.49;82.09
46291;BME280;32023;44.444;26.006;2023-04-25T13:11:41;99307.78;;;15.50;81.18
46291;BME280;32023;44.444;26.006;2023-04-25T13:14:07;99313.59;;;15.49;80.53
46291;BME280;32023;44.444;26.006;2023-04-25T13:16:34;99307.88;;;15.45;80.45
46291;BME280;32023;44.444;26.006;2023-04-25T13:19:06;99298.38;;;15.37;80.92
46291;BME280;32023;44.444;26.006;2023-04-25T13:21:34;99301.13;;;15.37;81.92
46291;BME280;32023;44.444;26.006;2023-04-25T13:24:00;99285.38;;;15.47;82.13
46291;BME280;32023;44.444;26.006;2023-04-25T13:26:26;99281.94;;;15.72;82.12
46291;BME280;32023;44.444;26.006;2023-04-25T13:28:59;99282.53;;;16.00;80.90
46291;BME280;32023;44.444;26.006;2023-04-25T13:31:26;99299.22;;;16.17;79.00
46291;BME280;32023;44.444;26.006;2023-04-25T13:33:52;99300.44;;;16.42;78.94
46291;BME280;32023;44.444;26.006;2023-04-25T13:36:28;99294.47;;;16.65;76.25
46291;BME280;32023;44.444;26.006;2023-04-25T13:38:55;99288.41;;;16.89;75.02
46291;BME280;32023;44.444;26.006;2023-04-25T13:41:24;99288.72;;;17.13;75.10
46291;BME280;32023;44.444;26.006;2023-04-25T13:43:50;99284.78;;;17.23;73.47
46291;BME280;32023;44.444;26.006;2023-04-25T13:46:17;99277.91;;;17.20;71.95
46291;BME280;32023;44.444;26.006;2023-04-25T13:48:43;99283.13;;;17.30;70.90
46291;BME280;32023;44.444;26.006;2023-04-25T13:51:13;99278.88;;;17.33;70.94
46291;BME280;32023;44.444;26.006;2023-04-25T13:53:41;99276.72;;;17.47;71.07
46291;BME280;32023;44.444;26.006;2023-04-25T13:56:07;99272.78;;;17.57;70.31
46291;BME280;32023;44.444;26.006;2023-04-25T13:58:36;99273.75;;;17.61;69.05
46291;BME280;32023;44.444;26.006;2023-04-25T14:01:06;99271.25;;;17.68;68.17
46291;BME280;32023;44.444;26.006;2023-04-25T14:03:33;99274.00;;;17.76;66.71
46291;BME280;32023;44.444;26.006;2023-04-25T14:06:05;99267.28;;;17.86;65.82
46291;BME280;32023;44.444;26.006;2023-04-25T14:08:48;99257.72;;;17.96;65.23
46291;BME280;32023;44.444;26.006;2023-04-25T14:11:31;99257.00;;;18.07;65.41
46291;BME280;32023;44.444;26.006;2023-04-25T14:14:06;99251.69;;;18.14;66.05
46291;BME280;32023;44.444;26.006;2023-04-25T14:16:44;99254.44;;;18.23;66.89
46291;BME280;32023;44.444;26.006;2023-04-25T14:19:31;99250.34;;;18.20;66.34
46291;BME280;32023;44.444;26.006;2023-04-25T14:22:08;99244.25;;;18.27;66.89
46291;BME280;32023;44.444;26.006;2023-04-25T14:24:46;99245.53;;;18.29;66.85
46291;BME280;32023;44.444;26.006;2023-04-25T14:27:15;99224.53;;;18.11;64.85
46291;BME280;32023;44.444;26.006;2023-04-25T14:29:44;99233.84;;;18.15;64.46
46291;BME280;32023;44.444;26.006;2023-04-25T14:32:12;99241.78;;;18.25;64.61
46291;BME280;32023;44.444;26.006;2023-04-25T14:34:43;99235.16;;;18.39;62.24
46291;BME280;32023;44.444;26.006;2023-04-25T14:37:15;99238.41;;;18.41;60.67
46291;BME280;32023;44.444;26.006;2023-04-25T14:40:00;99237.38;;;18.24;61.64
46291;BME280;32023;44.444;26.006;2023-04-25T14:50:34;99233.94;;;18.27;63.58
46291;BME280;32023;44.444;26.006;2023-04-25T15:10:33;99200.22;;;17.91;65.88
46291;BME280;32023;44.444;26.006;2023-04-25T15:13:02;99201.03;;;17.62;59.52
46291;BME280;32023;44.444;26.006;2023-04-25T15:19:00;99198.59;;;16.97;54.16
46291;BME280;32023;44.444;26.006;2023-04-25T15:21:44;99195.00;;;16.97;54.90
46291;BME280;32023;44.444;26.006;2023-04-25T15:24:22;99187.97;;;16.99;54.76
46291;BME280;32023;44.444;26.006;2023-04-25T15:27:05;99188.28;;;17.06;55.67
46291;BME280;32023;44.444;26.006;2023-04-25T15:29:50;99204.00;;;17.02;56.32
46291;BME280;32023;44.444;26.006;2023-04-25T15:32:32;99206.63;;;16.90;57.11
46291;BME280;32023;44.444;26.006;2023-04-25T15:34:59;99204.81;;;16.94;59.83
46291;BME280;32023;44.444;26.006;2023-04-25T15:40:40;99218.69;;;16.25;61.39
46291;BME280;32023;44.444;26.006;2023-04-25T15:43:28;99214.41;;;16.02;63.19
46291;BME280;32023;44.444;26.006;2023-04-25T15:46:17;99213.06;;;15.74;64.65
46291;BME280;32023;44.444;26.006;2023-04-25T15:52:18;99208.16;;;15.49;67.31
46291;BME280;32023;44.444;26.006;2023-04-25T15:55:29;99203.69;;;15.30;67.18
46291;BME280;32023;44.444;26.006;2023-04-25T15:58:13;99211.78;;;15.18;67.24
46291;BME280;32023;44.444;26.006;2023-04-25T16:01:41;99209.41;;;15.03;66.01
46291;BME280;32023;44.444;26.006;2023-04-25T16:04:23;99212.97;;;14.95;67.17
46291;BME280;32023;44.444;26.006;2023-04-25T16:09:54;99215.34;;;14.66;67.68
46291;BME280;32023;44.444;26.006;2023-04-25T16:12:49;99212.09;;;14.64;68.49
46291;BME280;32023;44.444;26.006;2023-04-25T16:15:43;99222.34;;;14.63;69.43
46291;BME280;32023;44.444;26.006;2023-04-25T16:19:02;99216.00;;;14.63;70.03